createdAt,value
2022-10-11T00:00:42.633Z,12.18
2022-10-11T00:03:49.454Z,12.20
2022-10-11T00:06:57.872Z,12.20
2022-10-11T00:10:04.302Z,12.20
2022-10-11T00:13:11.018Z,12.20
2022-10-11T00:16:17.568Z,12.22
2022-10-11T00:19:23.402Z,12.24
2022-10-11T00:22:32.688Z,12.25
2022-10-11T00:25:38.371Z,12.25
2022-10-11T00:28:45.925Z,12.26
2022-10-11T00:31:51.584Z,12.26
2022-10-11T00:34:59.883Z,12.27
2022-10-11T00:38:12.786Z,12.28
2022-10-11T00:41:19.675Z,12.28
2022-10-11T00:44:27.833Z,12.26
2022-10-11T00:47:34.370Z,12.26
2022-10-11T00:50:40.585Z,12.28
2022-10-11T00:53:52.386Z,12.32
2022-10-11T00:57:03.452Z,12.33
2022-10-11T01:00:13.177Z,12.34
2022-10-11T01:03:20.217Z,12.36
2022-10-11T01:06:26.790Z,12.40
2022-10-11T01:09:36.446Z,12.43
2022-10-11T01:12:55.840Z,12.44
2022-10-11T01:16:10.594Z,12.46
2022-10-11T01:19:32.185Z,12.45
2022-10-11T01:23:00.125Z,12.45
2022-10-11T01:26:46.361Z,12.45
2022-10-11T01:29:59.303Z,12.44
2022-10-11T01:33:21.662Z,12.43
2022-10-11T01:36:34.635Z,12.41
2022-10-11T01:39:46.732Z,12.42
2022-10-11T01:42:53.652Z,12.43
2022-10-11T01:46:03.901Z,12.47
2022-10-11T01:49:12.837Z,12.50
2022-10-11T01:52:19.343Z,12.50
2022-10-11T01:55:34.436Z,12.49
2022-10-11T01:58:54.670Z,12.51
2022-10-11T02:02:09.437Z,12.47
2022-10-11T02:05:25.619Z,12.49
2022-10-11T02:08:39.851Z,12.47
2022-10-11T02:11:47.255Z,12.47
2022-10-11T02:14:57.016Z,12.50
2022-10-11T02:18:09.119Z,12.51
2022-10-11T02:21:22.336Z,12.54
2022-10-11T02:24:33.494Z,12.52
2022-10-11T02:27:43.110Z,12.54
2022-10-11T02:30:53.511Z,12.54
2022-10-11T02:34:06.584Z,12.55
2022-10-11T02:37:25.776Z,12.50
2022-10-11T02:40:35.845Z,12.58
2022-10-11T02:43:46.650Z,12.61
2022-10-11T02:46:53.243Z,12.61
2022-10-11T02:50:00.543Z,12.59
2022-10-11T02:53:10.335Z,12.58
2022-10-11T02:56:16.761Z,12.57
2022-10-11T02:59:22.416Z,12.57
2022-10-11T03:02:28.890Z,12.57
2022-10-11T03:05:40.627Z,12.58
2022-10-11T03:08:49.878Z,12.57
2022-10-11T03:11:55.504Z,12.53
2022-10-11T03:15:03.263Z,12.52
2022-10-11T03:18:09.023Z,12.52
2022-10-11T03:21:15.461Z,12.49
2022-10-11T03:24:23.918Z,12.48
2022-10-11T03:27:30.327Z,12.48
2022-10-11T03:30:35.950Z,12.50
2022-10-11T03:33:42.661Z,12.51
2022-10-11T03:36:48.239Z,12.54
2022-10-11T03:39:57.522Z,12.53
2022-10-11T03:43:03.515Z,12.53
2022-10-11T03:46:10.166Z,12.53
2022-10-11T03:49:15.738Z,12.55
2022-10-11T03:52:22.158Z,12.57
2022-10-11T03:55:30.488Z,12.57
2022-10-11T03:58:37.195Z,12.60
2022-10-11T04:01:42.985Z,12.61
2022-10-11T04:04:49.457Z,12.54
2022-10-11T04:07:55.319Z,12.50
2022-10-11T04:11:06.282Z,12.50
2022-10-11T04:14:11.865Z,12.47
2022-10-11T04:17:18.305Z,12.49
2022-10-11T04:20:23.968Z,12.49
2022-10-11T04:23:30.745Z,12.52
2022-10-11T04:26:39.097Z,12.54
2022-10-11T04:29:45.828Z,12.52
2022-10-11T04:32:51.539Z,12.58
2022-10-11T04:35:59.115Z,12.57
2022-10-11T04:39:05.977Z,12.58
2022-10-11T04:42:16.550Z,12.58
2022-10-11T04:45:22.657Z,12.51
2022-10-11T04:48:29.163Z,12.37
2022-10-11T04:51:36.694Z,12.19
2022-10-11T04:54:43.157Z,12.03
2022-10-11T04:57:51.500Z,11.88
2022-10-11T05:00:58.113Z,11.77
2022-10-11T05:04:04.074Z,11.60
2022-10-11T05:07:11.031Z,11.46
2022-10-11T05:10:16.676Z,11.38
2022-10-11T05:13:26.296Z,11.39
2022-10-11T05:16:31.953Z,11.31
2022-10-11T05:19:38.487Z,11.24
2022-10-11T05:22:44.097Z,11.20
2022-10-11T05:25:51.029Z,11.22
2022-10-11T05:28:59.674Z,11.24
2022-10-11T05:32:07.900Z,11.22
2022-10-11T05:35:13.606Z,11.21
2022-10-11T05:38:20.235Z,11.29
2022-10-11T05:41:25.845Z,11.35
2022-10-11T05:44:35.123Z,11.42
2022-10-11T05:47:40.680Z,11.48
2022-10-11T05:50:47.175Z,11.53
2022-10-11T05:53:52.882Z,11.54
2022-10-11T05:56:59.321Z,11.53
2022-10-11T06:00:11.870Z,11.54
2022-10-11T06:03:21.159Z,11.55
2022-10-11T06:06:27.877Z,11.52
2022-10-11T06:09:35.011Z,11.54
2022-10-11T06:12:41.061Z,11.56
2022-10-11T06:15:50.285Z,11.63
2022-10-11T06:18:57.059Z,11.63
2022-10-11T06:22:03.618Z,11.69
2022-10-11T06:25:10.646Z,11.75
2022-10-11T06:28:17.396Z,11.75
2022-10-11T06:31:25.953Z,11.76
2022-10-11T06:34:32.381Z,11.82
2022-10-11T06:37:38.523Z,11.82
2022-10-11T06:40:45.346Z,11.85
2022-10-11T06:43:54.727Z,11.87
2022-10-11T06:47:04.095Z,11.96
2022-10-11T06:50:10.257Z,11.96
2022-10-11T06:53:16.875Z,12.03
2022-10-11T06:56:22.667Z,12.09
2022-10-11T06:59:29.129Z,12.15
2022-10-11T07:02:37.488Z,12.31
2022-10-11T07:05:44.079Z,12.33
2022-10-11T07:08:50.159Z,12.38
2022-10-11T07:11:56.624Z,12.47
2022-10-11T07:15:03.509Z,12.51
2022-10-11T07:18:12.863Z,12.61
2022-10-11T07:21:19.393Z,12.59
2022-10-11T07:24:25.820Z,12.70
2022-10-11T07:27:31.443Z,12.90
2022-10-11T07:30:42.321Z,12.97
2022-10-11T07:33:50.753Z,13.07
2022-10-11T07:36:57.421Z,13.17
2022-10-11T07:40:03.802Z,13.18
2022-10-11T07:43:10.749Z,13.25
2022-10-11T07:46:16.650Z,13.36
2022-10-11T07:49:25.969Z,13.50
2022-10-11T07:52:31.555Z,13.62
2022-10-11T07:55:40.351Z,13.60
2022-10-11T07:58:46.317Z,13.67
2022-10-11T08:01:52.853Z,13.77
2022-10-11T08:05:03.024Z,13.87
2022-10-11T08:08:09.577Z,13.89
2022-10-11T08:11:23.770Z,13.97
2022-10-11T08:14:30.320Z,13.99
2022-10-11T08:27:50.043Z,13.80
2022-10-11T08:30:57.379Z,13.61
2022-10-11T08:34:04.293Z,13.50
2022-10-11T08:37:13.221Z,13.40
2022-10-11T08:40:21.281Z,13.32
2022-10-11T08:43:36.023Z,13.26
2022-10-11T08:46:45.308Z,13.22
2022-10-11T08:49:51.619Z,13.30
2022-10-11T08:53:06.596Z,13.41
2022-10-11T08:56:16.555Z,13.37
2022-10-11T08:59:32.669Z,13.41
2022-10-11T09:03:06.909Z,13.33
2022-10-11T09:06:23.493Z,13.19
2022-10-11T09:10:00.091Z,13.09
2022-10-11T09:13:31.221Z,13.13
2022-10-11T09:16:48.426Z,13.19
2022-10-11T09:20:30.331Z,13.38
2022-10-11T09:23:52.793Z,13.46
2022-10-11T09:27:15.066Z,13.47
2022-10-11T09:30:23.181Z,13.44
2022-10-11T09:33:36.262Z,13.41
2022-10-11T09:36:49.995Z,13.36
2022-10-11T09:40:00.480Z,13.30
2022-10-11T09:43:12.689Z,13.19
2022-10-11T09:46:27.437Z,13.19
2022-10-11T09:49:38.866Z,13.21
2022-10-11T09:52:53.520Z,13.20
2022-10-11T09:56:08.506Z,13.21
2022-10-11T09:59:34.608Z,13.25
2022-10-11T10:02:47.148Z,13.26
2022-10-11T10:06:08.668Z,13.19
2022-10-11T10:09:27.878Z,13.14
2022-10-11T10:12:34.340Z,13.07
2022-10-11T10:15:50.086Z,13.12
2022-10-11T10:18:59.209Z,13.18
2022-10-11T10:22:07.650Z,13.23
2022-10-11T10:25:25.405Z,13.34
2022-10-11T10:28:31.160Z,13.51
2022-10-11T10:32:09.230Z,13.70
2022-10-11T10:35:16.433Z,13.72
2022-10-11T10:38:28.403Z,13.66
2022-10-11T10:41:34.323Z,13.69
2022-10-11T10:44:40.797Z,13.80
2022-10-11T10:48:10.922Z,13.82
2022-10-11T10:51:27.116Z,13.73
2022-10-11T10:54:45.444Z,13.61
2022-10-11T11:01:44.793Z,13.45
2022-10-11T11:05:03.331Z,13.40
2022-10-11T11:08:18.202Z,13.33
2022-10-11T11:11:39.367Z,13.35
2022-10-11T11:14:58.226Z,13.50
2022-10-11T11:18:16.626Z,13.63
2022-10-11T11:21:44.573Z,13.78
2022-10-11T11:25:03.648Z,13.98
2022-10-11T11:28:22.053Z,14.11
2022-10-11T11:31:48.948Z,13.96
2022-10-11T11:35:01.312Z,13.83
2022-10-11T11:38:20.026Z,13.91
2022-10-11T11:41:30.917Z,13.85
2022-10-11T11:44:42.122Z,13.69
2022-10-11T11:47:55.276Z,13.62
2022-10-11T11:51:11.879Z,13.62
2022-10-11T11:54:35.044Z,13.71
2022-10-11T11:58:06.022Z,13.73
2022-10-11T12:01:30.266Z,13.80
2022-10-11T12:04:41.048Z,13.99
2022-10-11T12:07:53.522Z,14.24
2022-10-11T12:11:33.033Z,14.45
2022-10-11T12:14:43.537Z,14.59
2022-10-11T12:18:17.686Z,14.69
2022-10-11T12:21:30.412Z,14.73
2022-10-11T12:24:58.234Z,14.85
2022-10-11T12:28:49.153Z,15.04
2022-10-11T12:32:29.645Z,15.11
2022-10-11T12:35:53.251Z,15.23
2022-10-11T12:39:33.500Z,15.37
2022-10-11T12:42:39.895Z,15.41
2022-10-11T12:45:51.519Z,15.51
2022-10-11T12:48:59.920Z,15.61
2022-10-11T12:52:25.014Z,15.60
2022-10-11T12:55:44.976Z,15.30
2022-10-11T12:58:52.203Z,15.14
2022-10-11T13:02:03.976Z,14.99
2022-10-11T13:05:18.296Z,14.85
2022-10-11T13:08:30.906Z,14.86
2022-10-11T13:11:41.683Z,14.84
2022-10-11T13:14:50.298Z,14.86
2022-10-11T13:18:06.284Z,14.92
2022-10-11T13:21:23.060Z,14.93
2022-10-11T13:24:37.895Z,14.99
2022-10-11T13:27:43.948Z,14.98
2022-10-11T13:30:55.183Z,14.98
2022-10-11T13:34:03.832Z,14.90
2022-10-11T13:37:16.026Z,14.80
2022-10-11T13:40:24.225Z,14.79
2022-10-11T13:43:32.774Z,14.78
2022-10-11T13:46:41.912Z,14.72
2022-10-11T13:50:03.916Z,14.66
2022-10-11T13:53:25.972Z,14.69
2022-10-11T13:56:35.793Z,14.68
2022-10-11T13:59:46.624Z,14.65
2022-10-11T14:02:56.383Z,14.65
2022-10-11T14:06:06.695Z,14.65
2022-10-11T14:09:24.519Z,14.61
2022-10-11T14:12:33.809Z,14.67
2022-10-11T14:15:41.238Z,14.65
2022-10-11T14:18:51.849Z,14.62
2022-10-11T14:22:01.248Z,14.66
2022-10-11T14:25:08.571Z,14.67
2022-10-11T14:28:16.536Z,14.67
2022-10-11T14:31:22.256Z,14.65
2022-10-11T14:34:30.473Z,14.63
2022-10-11T14:37:38.895Z,14.56
2022-10-11T14:40:45.460Z,14.47
2022-10-11T14:43:51.067Z,14.42
2022-10-11T14:46:57.510Z,14.38
2022-10-11T14:50:04.929Z,14.34
2022-10-11T14:53:15.371Z,14.30
2022-10-11T14:56:21.819Z,14.26
2022-10-11T14:59:30.309Z,14.18
2022-10-11T15:02:36.776Z,14.13
2022-10-11T15:05:43.301Z,14.06
2022-10-11T15:08:52.250Z,14.04
2022-10-11T15:11:58.990Z,14.00
2022-10-11T15:15:06.204Z,13.97
2022-10-11T15:18:17.671Z,13.95
2022-10-11T15:21:24.614Z,13.91
2022-10-11T15:24:33.981Z,13.86
2022-10-11T15:27:40.054Z,13.81
2022-10-11T15:30:46.814Z,13.75
2022-10-11T15:33:53.062Z,13.67
2022-10-11T15:36:59.458Z,13.62
2022-10-11T15:40:19.503Z,13.54
2022-10-11T15:43:27.600Z,13.45
2022-10-11T15:46:33.162Z,13.34
2022-10-11T15:49:39.609Z,13.22
2022-10-11T15:52:45.179Z,13.14
2022-10-11T15:55:56.176Z,13.06
2022-10-11T15:59:03.051Z,12.97
2022-10-11T16:02:09.820Z,12.89
2022-10-11T16:05:15.460Z,12.83
2022-10-11T16:08:22.658Z,12.74
2022-10-11T16:11:31.201Z,12.67
2022-10-11T16:14:41.705Z,12.60
2022-10-11T16:17:50.513Z,12.49
2022-10-11T16:20:56.917Z,12.41
2022-10-11T16:24:03.880Z,12.32
2022-10-11T16:27:17.969Z,12.23
2022-10-11T16:30:24.683Z,12.13
2022-10-11T16:33:31.987Z,12.07
2022-10-11T16:36:41.104Z,12.00
2022-10-11T16:39:47.801Z,11.93
2022-10-11T16:42:56.289Z,11.86
2022-10-11T16:46:03.559Z,11.77
2022-10-11T16:49:10.749Z,11.70
2022-10-11T16:52:17.330Z,11.64
2022-10-11T16:55:22.952Z,11.58
2022-10-11T16:58:32.402Z,11.53
2022-10-11T17:01:38.094Z,11.47
2022-10-11T17:04:44.518Z,11.43
2022-10-11T17:07:50.304Z,11.40
2022-10-11T17:10:57.771Z,11.35
2022-10-11T17:14:07.871Z,11.32
2022-10-11T17:17:15.361Z,11.27
2022-10-11T17:20:21.126Z,11.23
2022-10-11T17:23:27.494Z,11.20
2022-10-11T17:26:33.060Z,11.18
2022-10-11T17:29:42.910Z,11.16
2022-10-11T17:32:48.484Z,11.13
2022-10-11T17:35:55.000Z,11.07
2022-10-11T17:39:00.789Z,11.02
2022-10-11T17:42:09.203Z,10.96
2022-10-11T17:45:18.976Z,10.94
2022-10-11T17:48:25.682Z,10.89
2022-10-11T17:51:31.533Z,10.88
2022-10-11T17:54:39.207Z,10.90
2022-10-11T17:57:45.655Z,10.88
2022-10-11T18:00:55.223Z,10.88
2022-10-11T18:04:03.601Z,10.87
2022-10-11T18:07:10.613Z,10.87
2022-10-11T18:10:16.531Z,10.89
2022-10-11T18:13:22.958Z,10.88
2022-10-11T18:16:32.938Z,10.89
2022-10-11T18:19:39.736Z,10.90
2022-10-11T18:22:45.578Z,10.90
2022-10-11T18:25:52.126Z,10.91
2022-10-11T18:28:58.443Z,10.90
2022-10-11T18:32:10.196Z,10.91
2022-10-11T18:35:16.155Z,10.89
2022-10-11T18:38:22.569Z,10.89
2022-10-11T18:41:32.057Z,10.91
2022-10-11T18:44:38.584Z,10.88
2022-10-11T18:47:46.942Z,10.90
2022-10-11T18:50:53.389Z,10.88
2022-10-11T18:53:59.551Z,10.87
2022-10-11T18:57:07.104Z,10.86
2022-10-11T19:00:38.967Z,10.86
2022-10-11T19:03:43.460Z,10.85
2022-10-11T19:06:52.706Z,10.84
2022-10-11T19:10:00.627Z,10.82
2022-10-11T19:13:08.526Z,10.80
2022-10-11T19:16:17.793Z,10.77
2022-10-11T19:19:28.182Z,10.79
2022-10-11T19:22:34.549Z,10.79
2022-10-11T19:25:40.162Z,10.79
2022-10-11T19:28:47.229Z,10.79
2022-10-11T19:31:55.442Z,10.76
2022-10-11T19:35:06.283Z,10.69
2022-10-11T19:38:12.300Z,10.65
2022-10-11T19:41:20.808Z,10.58
2022-10-11T19:44:26.372Z,10.42
2022-10-11T19:47:34.258Z,10.24
2022-10-11T19:50:42.829Z,10.07
2022-10-11T19:53:50.015Z,9.93
2022-10-11T19:56:56.209Z,9.81
2022-10-11T20:00:03.269Z,9.71
2022-10-11T20:03:10.272Z,9.60
2022-10-11T20:06:21.656Z,9.49
2022-10-11T20:09:30.263Z,9.39
2022-10-11T20:12:37.230Z,9.29
2022-10-11T20:15:42.861Z,9.22
2022-10-11T20:18:49.986Z,9.15
2022-10-11T20:21:59.073Z,9.06
2022-10-11T20:25:07.177Z,9.02
2022-10-11T20:28:12.740Z,8.93
2022-10-11T20:31:21.255Z,8.88
2022-10-11T20:34:27.773Z,8.82
2022-10-11T20:37:38.567Z,8.77
2022-10-11T20:40:44.250Z,8.71
2022-10-11T20:43:52.729Z,8.62
2022-10-11T20:47:01.643Z,8.62
2022-10-11T20:50:11.267Z,8.57
2022-10-11T20:53:19.623Z,8.55
2022-10-11T20:56:26.899Z,8.52
2022-10-11T20:59:32.606Z,8.47
2022-10-11T21:02:39.093Z,8.43
2022-10-11T21:05:45.080Z,8.36
2022-10-11T21:08:54.488Z,8.33
2022-10-11T21:12:00.055Z,8.29
2022-10-11T21:15:11.338Z,8.28
2022-10-11T21:18:17.186Z,8.24
2022-10-11T21:21:24.373Z,8.21
2022-10-11T21:24:32.718Z,8.19
2022-10-11T21:27:39.258Z,8.17
2022-10-11T21:30:44.797Z,8.14
2022-10-11T21:33:51.239Z,8.11
2022-10-11T21:36:57.054Z,8.06
2022-10-11T21:40:07.058Z,8.04
2022-10-11T21:43:12.663Z,7.99
2022-10-11T21:46:21.127Z,7.94
2022-10-11T21:49:26.924Z,7.91
2022-10-11T21:52:34.131Z,7.87
2022-10-11T21:55:42.630Z,7.80
2022-10-11T21:58:50.408Z,7.81
2022-10-11T22:02:00.731Z,7.78
2022-10-11T22:05:09.158Z,7.74
2022-10-11T22:08:14.903Z,7.70
2022-10-11T22:11:24.284Z,7.64
2022-10-11T22:14:30.549Z,7.62
2022-10-11T22:17:36.934Z,7.60
2022-10-11T22:20:42.485Z,7.58
2022-10-11T22:23:50.871Z,7.58
2022-10-11T22:26:59.242Z,7.58
2022-10-11T22:30:07.162Z,7.60
2022-10-11T22:33:12.701Z,7.56
2022-10-11T22:36:19.721Z,7.53
2022-10-11T22:39:25.285Z,7.53
2022-10-11T22:42:34.882Z,7.49
2022-10-11T22:45:40.424Z,7.47
2022-10-11T22:48:46.937Z,7.45
2022-10-11T22:51:52.514Z,7.40
2022-10-11T22:55:00.248Z,7.36
2022-10-11T22:58:10.243Z,7.36
2022-10-11T23:01:18.770Z,7.37
2022-10-11T23:04:25.096Z,7.35
2022-10-11T23:07:31.774Z,7.31
2022-10-11T23:10:37.612Z,7.25
2022-10-11T23:13:46.851Z,7.19
2022-10-11T23:16:53.848Z,7.14
2022-10-11T23:20:00.716Z,7.10
2022-10-11T23:23:07.719Z,7.09
2022-10-11T23:26:16.535Z,7.07
2022-10-11T23:29:24.895Z,7.06
2022-10-11T23:32:31.301Z,7.07
2022-10-11T23:35:37.682Z,7.06
2022-10-11T23:38:44.057Z,7.04
2022-10-11T23:41:49.668Z,7.00
2022-10-11T23:44:58.843Z,6.98
2022-10-11T23:48:06.492Z,6.95
2022-10-11T23:51:13.459Z,6.94
2022-10-11T23:54:19.011Z,6.95
2022-10-11T23:57:25.384Z,6.95
